sensor_id;sensor_type;location;lat;lon;timestamp;pressure;altitude;pressure_sealevel;temperature;humidity
16016;BME280;8112;53.592;10.184;2023-03-31T00:04:34;100059.41;;;10.06;100.00
16016;BME280;8112;53.592;10.184;2023-03-31T00:09:36;100056.75;;;10.06;100.00
16016;BME280;8112;53.592;10.184;2023-03-31T00:14:39;100061.72;;;9.98;100.00
16016;BME280;8112;53.592;10.184;2023-03-31T00:19:46;100061.50;;;10.01;100.00
16016;BME280;8112;53.592;10.184;2023-03-31T00:24:49;100054.56;;;10.00;100.00
16016;BME280;8112;53.592;10.184;2023-03-31T00:29:53;100050.16;;;10.01;100.00
16016;BME280;8112;53.592;10.184;2023-03-31T00:40:37;100031.28;;;9.94;100.00
16016;BME280;8112;53.592;10.184;2023-03-31T00:45:45;100031.59;;;9.89;100.00
16016;BME280;8112;53.592;10.184;2023-03-31T00:50:52;100011.78;;;9.83;100.00
16016;BME280;8112;53.592;10.184;2023-03-31T00:56:07;100014.63;;;9.80;100.00
16016;BME280;8112;53.592;10.184;2023-03-31T01:01:19;100008.44;;;9.81;100.00
16016;BME280;8112;53.592;10.184;2023-03-31T01:06:24;100004.19;;;9.79;100.00
16016;BME280;8112;53.592;10.184;2023-03-31T01:11:33;99998.41;;;9.74;100.00
16016;BME280;8112;53.592;10.184;2023-03-31T01:16:36;99987.91;;;9.74;100.00
16016;BME280;8112;53.592;10.184;2023-03-31T01:22:06;99983.88;;;9.68;100.00
16016;BME280;8112;53.592;10.184;2023-03-31T01:27:36;99985.16;;;9.62;100.00
16016;BME280;8112;53.592;10.184;2023-03-31T01:44:32;99953.16;;;9.81;100.00
16016;BME280;8112;53.592;10.184;2023-03-31T02:02:06;99936.09;;;10.00;100.00
16016;BME280;8112;53.592;10.184;2023-03-31T02:07:28;99926.44;;;10.01;100.00
16016;BME280;8112;53.592;10.184;2023-03-31T02:13:00;99921.38;;;10.10;100.00
16016;BME280;8112;53.592;10.184;2023-03-31T02:18:22;99913.13;;;10.15;100.00
16016;BME280;8112;53.592;10.184;2023-03-31T02:23:35;99901.34;;;10.08;100.00
16016;BME280;8112;53.592;10.184;2023-03-31T02:28:38;99879.97;;;10.12;100.00
16016;BME280;8112;53.592;10.184;2023-03-31T02:33:42;99876.09;;;10.05;100.00
16016;BME280;8112;53.592;10.184;2023-03-31T02:39:00;99869.34;;;10.01;100.00
16016;BME280;8112;53.592;10.184;2023-03-31T02:44:07;99859.88;;;10.11;100.00
16016;BME280;8112;53.592;10.184;2023-03-31T02:49:13;99856.91;;;10.16;100.00
16016;BME280;8112;53.592;10.184;2023-03-31T02:54:45;99851.75;;;10.15;100.00
16016;BME280;8112;53.592;10.184;2023-03-31T03:00:24;99842.34;;;10.23;100.00
16016;BME280;8112;53.592;10.184;2023-03-31T03:05:51;99829.63;;;10.17;100.00
16016;BME280;8112;53.592;10.184;2023-03-31T03:11:27;99829.56;;;10.06;100.00
16016;BME280;8112;53.592;10.184;2023-03-31T03:16:34;99815.75;;;10.02;100.00
16016;BME280;8112;53.592;10.184;2023-03-31T03:21:40;99812.19;;;10.03;100.00
16016;BME280;8112;53.592;10.184;2023-03-31T03:26:42;99807.66;;;10.05;100.00
16016;BME280;8112;53.592;10.184;2023-03-31T03:31:44;99801.09;;;10.11;100.00
16016;BME280;8112;53.592;10.184;2023-03-31T03:36:49;99793.03;;;10.01;100.00
16016;BME280;8112;53.592;10.184;2023-03-31T03:41:51;99777.69;;;9.95;100.00
16016;BME280;8112;53.592;10.184;2023-03-31T03:46:52;99784.78;;;9.81;100.00
16016;BME280;8112;53.592;10.184;2023-03-31T03:51:59;99779.72;;;9.78;100.00
16016;BME280;8112;53.592;10.184;2023-03-31T03:57:02;99776.38;;;9.76;100.00
16016;BME280;8112;53.592;10.184;2023-03-31T04:02:04;99774.69;;;9.75;100.00
16016;BME280;8112;53.592;10.184;2023-03-31T04:07:13;99765.63;;;9.79;100.00
16016;BME280;8112;53.592;10.184;2023-03-31T04:12:16;99770.06;;;9.66;100.00
16016;BME280;8112;53.592;10.184;2023-03-31T04:17:18;99764.78;;;9.79;100.00
16016;BME280;8112;53.592;10.184;2023-03-31T04:22:33;99752.06;;;9.73;100.00
16016;BME280;8112;53.592;10.184;2023-03-31T04:27:39;99738.81;;;9.74;100.00
16016;BME280;8112;53.592;10.184;2023-03-31T04:32:45;99731.78;;;9.62;100.00
16016;BME280;8112;53.592;10.184;2023-03-31T04:37:52;99720.00;;;9.67;100.00
16016;BME280;8112;53.592;10.184;2023-03-31T04:43:00;99725.88;;;9.71;100.00
16016;BME280;8112;53.592;10.184;2023-03-31T04:48:14;99714.69;;;9.80;100.00
16016;BME280;8112;53.592;10.184;2023-03-31T04:53:20;99717.00;;;9.85;100.00
16016;BME280;8112;53.592;10.184;2023-03-31T04:58:22;99698.44;;;9.87;100.00
16016;BME280;8112;53.592;10.184;2023-03-31T05:03:24;99693.47;;;9.95;100.00
16016;BME280;8112;53.592;10.184;2023-03-31T05:08:27;99676.50;;;9.99;100.00
16016;BME280;8112;53.592;10.184;2023-03-31T05:13:29;99669.09;;;10.04;100.00
16016;BME280;8112;53.592;10.184;2023-03-31T05:18:33;99672.25;;;10.09;100.00
16016;BME280;8112;53.592;10.184;2023-03-31T05:23:37;99667.00;;;10.21;100.00
16016;BME280;8112;53.592;10.184;2023-03-31T05:28:39;99651.72;;;10.26;100.00
16016;BME280;8112;53.592;10.184;2023-03-31T05:33:41;99647.53;;;10.23;100.00
16016;BME280;8112;53.592;10.184;2023-03-31T05:38:44;99625.25;;;10.27;100.00
16016;BME280;8112;53.592;10.184;2023-03-31T05:43:47;99624.69;;;10.35;100.00
16016;BME280;8112;53.592;10.184;2023-03-31T05:48:49;99620.63;;;10.31;100.00
16016;BME280;8112;53.592;10.184;2023-03-31T05:53:53;99618.22;;;10.28;100.00
16016;BME280;8112;53.592;10.184;2023-03-31T05:58:54;99613.53;;;10.32;100.00
16016;BME280;8112;53.592;10.184;2023-03-31T06:04:01;99594.50;;;10.39;100.00
16016;BME280;8112;53.592;10.184;2023-03-31T06:09:04;99597.31;;;10.49;100.00
16016;BME280;8112;53.592;10.184;2023-03-31T06:14:06;99592.91;;;10.61;100.00
16016;BME280;8112;53.592;10.184;2023-03-31T06:19:08;99587.16;;;10.67;100.00
16016;BME280;8112;53.592;10.184;2023-03-31T06:24:11;99584.50;;;10.90;100.00
16016;BME280;8112;53.592;10.184;2023-03-31T06:29:13;99578.25;;;11.14;100.00
16016;BME280;8112;53.592;10.184;2023-03-31T06:34:14;99571.53;;;11.21;100.00
16016;BME280;8112;53.592;10.184;2023-03-31T06:39:17;99574.34;;;11.41;100.00
16016;BME280;8112;53.592;10.184;2023-03-31T06:44:19;99562.38;;;11.37;100.00
16016;BME280;8112;53.592;10.184;2023-03-31T06:49:23;99554.66;;;11.45;100.00
16016;BME280;8112;53.592;10.184;2023-03-31T06:54:26;99542.44;;;11.44;100.00
16016;BME280;8112;53.592;10.184;2023-03-31T06:59:28;99541.63;;;11.65;100.00
16016;BME280;8112;53.592;10.184;2023-03-31T07:04:32;99538.19;;;11.64;100.00
16016;BME280;8112;53.592;10.184;2023-03-31T07:09:36;99539.06;;;11.75;100.00
16016;BME280;8112;53.592;10.184;2023-03-31T07:14:38;99527.94;;;11.71;100.00
16016;BME280;8112;53.592;10.184;2023-03-31T07:19:45;99516.34;;;11.83;100.00
16016;BME280;8112;53.592;10.184;2023-03-31T07:24:49;99510.50;;;12.22;100.00
16016;BME280;8112;53.592;10.184;2023-03-31T07:29:51;99502.81;;;12.50;100.00
16016;BME280;8112;53.592;10.184;2023-03-31T07:34:53;99498.13;;;12.64;100.00
16016;BME280;8112;53.592;10.184;2023-03-31T07:39:56;99484.41;;;12.90;100.00
16016;BME280;8112;53.592;10.184;2023-03-31T07:44:58;99482.63;;;12.90;100.00
16016;BME280;8112;53.592;10.184;2023-03-31T07:56:33;99465.97;;;12.49;100.00
16016;BME280;8112;53.592;10.184;2023-03-31T08:01:35;99458.00;;;12.29;100.00
16016;BME280;8112;53.592;10.184;2023-03-31T08:06:38;99454.03;;;12.14;100.00
16016;BME280;8112;53.592;10.184;2023-03-31T08:11:41;99445.66;;;11.87;100.00
16016;BME280;8112;53.592;10.184;2023-03-31T08:16:43;99450.38;;;11.41;100.00
16016;BME280;8112;53.592;10.184;2023-03-31T08:21:45;99446.56;;;11.34;100.00
16016;BME280;8112;53.592;10.184;2023-03-31T08:26:49;99441.56;;;11.31;100.00
16016;BME280;8112;53.592;10.184;2023-03-31T08:31:55;99443.81;;;11.35;100.00
16016;BME280;8112;53.592;10.184;2023-03-31T08:36:57;99445.28;;;11.49;100.00
16016;BME280;8112;53.592;10.184;2023-03-31T08:42:01;99447.03;;;11.39;100.00
16016;BME280;8112;53.592;10.184;2023-03-31T08:47:09;99444.09;;;11.53;100.00
16016;BME280;8112;53.592;10.184;2023-03-31T08:52:15;99442.50;;;11.30;100.00
16016;BME280;8112;53.592;10.184;2023-03-31T08:57:24;99437.94;;;11.32;100.00
16016;BME280;8112;53.592;10.184;2023-03-31T09:02:31;99434.28;;;11.23;100.00
16016;BME280;8112;53.592;10.184;2023-03-31T09:07:44;99426.25;;;11.24;100.00
16016;BME280;8112;53.592;10.184;2023-03-31T09:12:55;99430.19;;;11.30;100.00
16016;BME280;8112;53.592;10.184;2023-03-31T09:18:12;99427.31;;;11.22;100.00
16016;BME280;8112;53.592;10.184;2023-03-31T09:23:23;99420.06;;;11.14;100.00
16016;BME280;8112;53.592;10.184;2023-03-31T09:28:31;99425.53;;;11.22;100.00
16016;BME280;8112;53.592;10.184;2023-03-31T09:33:37;99415.84;;;11.44;100.00
16016;BME280;8112;53.592;10.184;2023-03-31T09:38:43;99408.25;;;11.72;100.00
16016;BME280;8112;53.592;10.184;2023-03-31T09:43:46;99403.66;;;12.05;100.00
16016;BME280;8112;53.592;10.184;2023-03-31T09:48:53;99390.09;;;12.20;100.00
16016;BME280;8112;53.592;10.184;2023-03-31T09:54:00;99383.81;;;12.11;100.00
16016;BME280;8112;53.592;10.184;2023-03-31T09:59:13;99372.84;;;12.06;100.00
16016;BME280;8112;53.592;10.184;2023-03-31T10:04:21;99370.91;;;12.08;100.00
16016;BME280;8112;53.592;10.184;2023-03-31T10:09:25;99365.94;;;12.24;100.00
16016;BME280;8112;53.592;10.184;2023-03-31T10:14:37;99362.38;;;12.45;100.00
16016;BME280;8112;53.592;10.184;2023-03-31T10:19:46;99352.66;;;12.75;100.00
16016;BME280;8112;53.592;10.184;2023-03-31T10:24:49;99351.97;;;13.03;100.00
16016;BME280;8112;53.592;10.184;2023-03-31T10:29:54;99342.63;;;12.79;100.00
16016;BME280;8112;53.592;10.184;2023-03-31T10:34:58;99339.69;;;12.52;100.00
16016;BME280;8112;53.592;10.184;2023-03-31T10:40:02;99324.56;;;12.45;100.00
16016;BME280;8112;53.592;10.184;2023-03-31T10:45:23;99325.66;;;12.62;100.00
16016;BME280;8112;53.592;10.184;2023-03-31T10:50:27;99310.31;;;13.15;100.00
16016;BME280;8112;53.592;10.184;2023-03-31T10:55:35;99301.72;;;13.03;100.00
16016;BME280;8112;53.592;10.184;2023-03-31T11:00:50;99300.78;;;12.64;100.00
16016;BME280;8112;53.592;10.184;2023-03-31T11:06:04;99296.03;;;12.58;100.00
16016;BME280;8112;53.592;10.184;2023-03-31T11:11:21;99287.41;;;12.36;100.00
16016;BME280;8112;53.592;10.184;2023-03-31T11:16:38;99286.41;;;12.08;100.00
16016;BME280;8112;53.592;10.184;2023-03-31T11:21:52;99273.91;;;12.20;100.00
16016;BME280;8112;53.592;10.184;2023-03-31T11:27:03;99287.28;;;12.48;100.00
16016;BME280;8112;53.592;10.184;2023-03-31T11:32:28;99279.75;;;12.23;100.00
16016;BME280;8112;53.592;10.184;2023-03-31T11:37:41;99274.75;;;12.20;100.00
16016;BME280;8112;53.592;10.184;2023-03-31T11:42:49;99272.53;;;12.25;100.00
16016;BME280;8112;53.592;10.184;2023-03-31T11:47:57;99266.56;;;12.43;100.00
16016;BME280;8112;53.592;10.184;2023-03-31T11:53:06;99265.59;;;12.34;100.00
16016;BME280;8112;53.592;10.184;2023-03-31T11:58:14;99256.97;;;12.32;100.00
16016;BME280;8112;53.592;10.184;2023-03-31T12:03:22;99257.78;;;12.23;100.00
16016;BME280;8112;53.592;10.184;2023-03-31T12:08:30;99255.28;;;12.11;100.00
16016;BME280;8112;53.592;10.184;2023-03-31T12:13:43;99240.72;;;12.17;100.00
16016;BME280;8112;53.592;10.184;2023-03-31T12:18:56;99245.56;;;12.22;100.00
16016;BME280;8112;53.592;10.184;2023-03-31T12:24:01;99242.50;;;12.07;100.00
16016;BME280;8112;53.592;10.184;2023-03-31T12:29:06;99235.06;;;11.81;100.00
16016;BME280;8112;53.592;10.184;2023-03-31T12:34:18;99235.22;;;11.48;100.00
16016;BME280;8112;53.592;10.184;2023-03-31T12:39:33;99225.38;;;11.50;100.00
16016;BME280;8112;53.592;10.184;2023-03-31T12:44:46;99227.50;;;11.57;100.00
16016;BME280;8112;53.592;10.184;2023-03-31T12:50:01;99223.41;;;11.43;100.00
16016;BME280;8112;53.592;10.184;2023-03-31T12:55:31;99225.97;;;11.54;100.00
16016;BME280;8112;53.592;10.184;2023-03-31T13:00:33;99213.66;;;11.74;100.00
16016;BME280;8112;53.592;10.184;2023-03-31T13:05:51;99220.88;;;11.72;100.00
16016;BME280;8112;53.592;10.184;2023-03-31T13:10:55;99204.63;;;11.87;100.00
16016;BME280;8112;53.592;10.184;2023-03-31T13:16:00;99198.88;;;12.32;100.00
16016;BME280;8112;53.592;10.184;2023-03-31T13:21:04;99195.69;;;14.08;100.00
16016;BME280;8112;53.592;10.184;2023-03-31T13:26:36;99184.41;;;15.30;100.00
16016;BME280;8112;53.592;10.184;2023-03-31T13:32:16;99155.50;;;15.18;100.00
16016;BME280;8112;53.592;10.184;2023-03-31T13:42:56;99127.00;;;13.14;100.00
16016;BME280;8112;53.592;10.184;2023-03-31T13:48:10;99130.94;;;12.72;100.00
16016;BME280;8112;53.592;10.184;2023-03-31T13:53:36;99127.66;;;12.40;100.00
16016;BME280;8112;53.592;10.184;2023-03-31T13:59:04;99130.13;;;12.62;100.00
16016;BME280;8112;53.592;10.184;2023-03-31T14:04:29;99132.19;;;12.68;100.00
16016;BME280;8112;53.592;10.184;2023-03-31T14:09:39;99127.78;;;12.96;100.00
16016;BME280;8112;53.592;10.184;2023-03-31T14:14:46;99127.00;;;13.14;100.00
16016;BME280;8112;53.592;10.184;2023-03-31T14:19:57;99127.28;;;13.85;100.00
16016;BME280;8112;53.592;10.184;2023-03-31T14:25:12;99119.41;;;15.25;100.00
16016;BME280;8112;53.592;10.184;2023-03-31T14:30:25;99096.34;;;15.26;100.00
16016;BME280;8112;53.592;10.184;2023-03-31T14:35:32;99095.41;;;14.66;100.00
16016;BME280;8112;53.592;10.184;2023-03-31T14:40:44;99084.38;;;14.79;100.00
16016;BME280;8112;53.592;10.184;2023-03-31T14:45:56;99079.75;;;15.24;100.00
16016;BME280;8112;53.592;10.184;2023-03-31T14:51:00;99080.50;;;15.00;100.00
16016;BME280;8112;53.592;10.184;2023-03-31T14:56:06;99078.63;;;14.31;100.00
16016;BME280;8112;53.592;10.184;2023-03-31T15:06:58;99063.25;;;14.34;100.00
16016;BME280;8112;53.592;10.184;2023-03-31T15:12:05;99064.97;;;13.91;100.00
16016;BME280;8112;53.592;10.184;2023-03-31T15:17:17;99061.97;;;14.38;100.00
16016;BME280;8112;53.592;10.184;2023-03-31T15:22:21;99064.94;;;14.70;100.00
16016;BME280;8112;53.592;10.184;2023-03-31T15:27:33;99061.16;;;15.16;100.00
16016;BME280;8112;53.592;10.184;2023-03-31T15:32:37;99052.03;;;15.10;100.00
16016;BME280;8112;53.592;10.184;2023-03-31T15:37:40;99052.63;;;14.95;100.00
16016;BME280;8112;53.592;10.184;2023-03-31T15:42:44;99051.78;;;14.87;100.00
16016;BME280;8112;53.592;10.184;2023-03-31T15:47:48;99051.94;;;14.85;100.00
16016;BME280;8112;53.592;10.184;2023-03-31T15:52:51;99053.75;;;14.85;100.00
16016;BME280;8112;53.592;10.184;2023-03-31T15:57:56;99057.97;;;15.04;100.00
16016;BME280;8112;53.592;10.184;2023-03-31T16:02:58;99048.53;;;14.66;100.00
16016;BME280;8112;53.592;10.184;2023-03-31T16:08:01;99047.41;;;14.43;100.00
16016;BME280;8112;53.592;10.184;2023-03-31T16:13:09;99052.78;;;14.24;100.00
16016;BME280;8112;53.592;10.184;2023-03-31T16:18:14;99059.25;;;14.04;100.00
16016;BME280;8112;53.592;10.184;2023-03-31T16:23:19;99060.28;;;13.66;100.00
16016;BME280;8112;53.592;10.184;2023-03-31T16:28:25;99062.34;;;13.54;100.00
16016;BME280;8112;53.592;10.184;2023-03-31T16:33:50;99068.56;;;13.35;100.00
16016;BME280;8112;53.592;10.184;2023-03-31T16:38:52;99070.25;;;13.08;100.00
16016;BME280;8112;53.592;10.184;2023-03-31T16:43:56;99075.44;;;13.00;100.00
16016;BME280;8112;53.592;10.184;2023-03-31T16:48:57;99083.38;;;12.62;100.00
16016;BME280;8112;53.592;10.184;2023-03-31T16:53:59;99082.91;;;12.49;100.00
16016;BME280;8112;53.592;10.184;2023-03-31T16:59:02;99085.53;;;12.49;100.00
16016;BME280;8112;53.592;10.184;2023-03-31T17:04:04;99078.16;;;12.43;100.00
16016;BME280;8112;53.592;10.184;2023-03-31T17:09:06;99085.59;;;12.29;100.00
16016;BME280;8112;53.592;10.184;2023-03-31T17:14:09;99087.13;;;12.22;100.00
16016;BME280;8112;53.592;10.184;2023-03-31T17:19:11;99093.25;;;12.13;100.00
16016;BME280;8112;53.592;10.184;2023-03-31T17:24:13;99094.34;;;12.00;100.00
16016;BME280;8112;53.592;10.184;2023-03-31T17:29:17;99099.63;;;11.90;100.00
16016;BME280;8112;53.592;10.184;2023-03-31T17:34:18;99100.88;;;11.76;100.00
16016;BME280;8112;53.592;10.184;2023-03-31T17:39:20;99107.41;;;11.62;100.00
16016;BME280;8112;53.592;10.184;2023-03-31T17:44:23;99121.00;;;11.58;100.00
16016;BME280;8112;53.592;10.184;2023-03-31T17:49:25;99118.09;;;11.61;100.00
16016;BME280;8112;53.592;10.184;2023-03-31T17:54:29;99127.13;;;11.68;100.00
16016;BME280;8112;53.592;10.184;2023-03-31T17:59:32;99129.63;;;11.79;100.00
16016;BME280;8112;53.592;10.184;2023-03-31T18:04:33;99135.59;;;11.81;100.00
16016;BME280;8112;53.592;10.184;2023-03-31T18:09:35;99145.75;;;11.86;100.00
16016;BME280;8112;53.592;10.184;2023-03-31T18:14:38;99140.59;;;11.84;100.00
16016;BME280;8112;53.592;10.184;2023-03-31T18:19:41;99148.53;;;11.84;100.00
16016;BME280;8112;53.592;10.184;2023-03-31T18:24:43;99153.66;;;11.76;100.00
16016;BME280;8112;53.592;10.184;2023-03-31T18:29:46;99148.22;;;11.78;100.00
16016;BME280;8112;53.592;10.184;2023-03-31T18:34:48;99169.09;;;11.71;100.00
16016;BME280;8112;53.592;10.184;2023-03-31T18:39:49;99169.03;;;11.61;100.00
16016;BME280;8112;53.592;10.184;2023-03-31T18:44:53;99165.84;;;11.58;100.00
16016;BME280;8112;53.592;10.184;2023-03-31T18:49:57;99170.16;;;11.59;100.00
16016;BME280;8112;53.592;10.184;2023-03-31T18:54:59;99175.03;;;11.53;100.00
16016;BME280;8112;53.592;10.184;2023-03-31T19:00:03;99169.00;;;11.51;100.00
16016;BME280;8112;53.592;10.184;2023-03-31T19:05:06;99166.81;;;11.47;100.00
16016;BME280;8112;53.592;10.184;2023-03-31T19:10:10;99182.75;;;11.45;100.00
16016;BME280;8112;53.592;10.184;2023-03-31T19:15:14;99185.53;;;11.44;100.00
16016;BME280;8112;53.592;10.184;2023-03-31T19:20:15;99188.69;;;11.37;100.00
16016;BME280;8112;53.592;10.184;2023-03-31T19:25:18;99191.34;;;11.37;100.00
16016;BME280;8112;53.592;10.184;2023-03-31T19:30:22;99190.38;;;11.38;100.00
16016;BME280;8112;53.592;10.184;2023-03-31T19:35:24;99187.69;;;11.29;100.00
16016;BME280;8112;53.592;10.184;2023-03-31T19:40:26;99191.31;;;11.27;100.00
16016;BME280;8112;53.592;10.184;2023-03-31T19:45:29;99192.97;;;11.29;100.00
16016;BME280;8112;53.592;10.184;2023-03-31T19:50:31;99190.03;;;11.22;100.00
16016;BME280;8112;53.592;10.184;2023-03-31T19:55:33;99198.09;;;11.20;100.00
16016;BME280;8112;53.592;10.184;2023-03-31T20:00:38;99194.44;;;11.11;100.00
16016;BME280;8112;53.592;10.184;2023-03-31T20:05:39;99187.69;;;10.97;100.00
16016;BME280;8112;53.592;10.184;2023-03-31T20:10:41;99193.50;;;10.91;100.00
16016;BME280;8112;53.592;10.184;2023-03-31T20:15:44;99200.44;;;10.92;100.00
16016;BME280;8112;53.592;10.184;2023-03-31T20:21:00;99194.66;;;10.98;100.00
16016;BME280;8112;53.592;10.184;2023-03-31T20:26:10;99193.69;;;11.00;100.00
16016;BME280;8112;53.592;10.184;2023-03-31T20:31:15;99200.75;;;10.99;100.00
16016;BME280;8112;53.592;10.184;2023-03-31T20:36:19;99201.84;;;10.96;100.00
16016;BME280;8112;53.592;10.184;2023-03-31T20:41:23;99216.13;;;10.94;100.00
16016;BME280;8112;53.592;10.184;2023-03-31T20:46:27;99207.13;;;10.96;100.00
16016;BME280;8112;53.592;10.184;2023-03-31T20:51:31;99211.31;;;10.99;100.00
16016;BME280;8112;53.592;10.184;2023-03-31T20:56:35;99205.75;;;11.02;100.00
16016;BME280;8112;53.592;10.184;2023-03-31T21:01:38;99209.09;;;11.04;100.00
16016;BME280;8112;53.592;10.184;2023-03-31T21:06:43;99207.44;;;11.03;100.00
16016;BME280;8112;53.592;10.184;2023-03-31T21:11:45;99207.31;;;11.05;100.00
16016;BME280;8112;53.592;10.184;2023-03-31T21:16:48;99222.69;;;11.00;100.00
16016;BME280;8112;53.592;10.184;2023-03-31T21:21:53;99225.19;;;11.01;100.00
16016;BME280;8112;53.592;10.184;2023-03-31T21:26:54;99217.09;;;10.93;100.00
16016;BME280;8112;53.592;10.184;2023-03-31T21:31:57;99224.16;;;10.92;100.00
16016;BME280;8112;53.592;10.184;2023-03-31T21:37:16;99220.56;;;10.93;100.00
16016;BME280;8112;53.592;10.184;2023-03-31T21:42:31;99225.97;;;10.92;100.00
16016;BME280;8112;53.592;10.184;2023-03-31T21:47:34;99224.53;;;10.88;100.00
16016;BME280;8112;53.592;10.184;2023-03-31T21:52:36;99229.44;;;10.92;100.00
16016;BME280;8112;53.592;10.184;2023-03-31T21:57:41;99233.19;;;10.90;100.00
16016;BME280;8112;53.592;10.184;2023-03-31T22:02:50;99235.81;;;10.90;100.00
16016;BME280;8112;53.592;10.184;2023-03-31T22:07:52;99227.84;;;10.80;100.00
16016;BME280;8112;53.592;10.184;2023-03-31T22:12:53;99231.13;;;10.72;100.00
16016;BME280;8112;53.592;10.184;2023-03-31T22:17:56;99229.91;;;10.76;100.00
16016;BME280;8112;53.592;10.184;2023-03-31T22:22:58;99234.97;;;10.68;100.00
16016;BME280;8112;53.592;10.184;2023-03-31T22:28:01;99229.41;;;10.61;100.00
16016;BME280;8112;53.592;10.184;2023-03-31T22:33:04;99235.50;;;10.62;100.00
16016;BME280;8112;53.592;10.184;2023-03-31T22:38:06;99243.38;;;10.62;100.00
16016;BME280;8112;53.592;10.184;2023-03-31T22:43:10;99248.78;;;10.60;100.00
16016;BME280;8112;53.592;10.184;2023-03-31T22:48:13;99260.53;;;10.56;100.00
16016;BME280;8112;53.592;10.184;2023-03-31T22:53:14;99256.75;;;10.49;100.00
16016;BME280;8112;53.592;10.184;2023-03-31T22:58:16;99255.34;;;10.45;100.00
16016;BME280;8112;53.592;10.184;2023-03-31T23:03:19;99251.38;;;10.39;100.00
16016;BME280;8112;53.592;10.184;2023-03-31T23:08:21;99268.72;;;10.41;100.00
16016;BME280;8112;53.592;10.184;2023-03-31T23:13:23;99268.09;;;10.49;100.00
16016;BME280;8112;53.592;10.184;2023-03-31T23:23:29;99281.16;;;10.51;100.00
16016;BME280;8112;53.592;10.184;2023-03-31T23:28:33;99278.88;;;10.46;100.00
16016;BME280;8112;53.592;10.184;2023-03-31T23:33:37;99284.03;;;10.48;100.00
16016;BME280;8112;53.592;10.184;2023-03-31T23:38:38;99286.69;;;10.48;100.00
16016;BME280;8112;53.592;10.184;2023-03-31T23:43:40;99297.91;;;10.50;100.00
16016;BME280;8112;53.592;10.184;2023-03-31T23:48:46;99290.63;;;10.53;100.00
16016;BME280;8112;53.592;10.184;2023-03-31T23:53:48;99285.56;;;10.50;100.00
16016;BME280;8112;53.592;10.184;2023-03-31T23:58:49;99276.00;;;10.49;100.00
